Metar Aviation Weather Data EGNJ Humberside

0°C Temp
0°C Dewpoint
100% Humidity
Temperature
8 KM/H
5 MPH
4 KTS
210°
South South
West

Wind Speed
Partly Cloudy
Conditions
Pressure 999.92 (hPa) - 29.53 (in)
Visibility 6.2 (mi) - 10 (km)

Current Conditions
EGNJ
Humberside
Metar :EGNJ 220750Z 21004KT 9999 FEW015 00/M00 Q1000
Tue 22nd January 07:50 am

Humberside
  Metar Aviation API Data Provided by https://www.checkwx.com/ PHP scripts by weather34.com ©2019